sensor_id;sensor_type;location;lat;lon;timestamp;temperature;humidity
3638;DHT22;1835;50.068;8.154;2022-11-20T00:01:33;3.50;99.90
3638;DHT22;1835;50.068;8.154;2022-11-20T00:04:01;3.40;99.90
3638;DHT22;1835;50.068;8.154;2022-11-20T00:06:29;3.30;99.90
3638;DHT22;1835;50.068;8.154;2022-11-20T00:08:58;3.30;99.90
3638;DHT22;1835;50.068;8.154;2022-11-20T00:11:29;3.30;99.90
3638;DHT22;1835;50.068;8.154;2022-11-20T00:14:00;3.30;99.90
3638;DHT22;1835;50.068;8.154;2022-11-20T00:16:31;3.20;99.90
3638;DHT22;1835;50.068;8.154;2022-11-20T00:19:00;3.20;99.90
3638;DHT22;1835;50.068;8.154;2022-11-20T00:21:29;3.10;99.90
3638;DHT22;1835;50.068;8.154;2022-11-20T00:23:57;3.30;99.90
3638;DHT22;1835;50.068;8.154;2022-11-20T00:26:27;3.40;99.90
3638;DHT22;1835;50.068;8.154;2022-11-20T00:28:57;3.30;99.90
3638;DHT22;1835;50.068;8.154;2022-11-20T00:31:26;3.50;99.90
3638;DHT22;1835;50.068;8.154;2022-11-20T00:33:56;3.70;99.90
3638;DHT22;1835;50.068;8.154;2022-11-20T00:36:26;3.90;99.90
3638;DHT22;1835;50.068;8.154;2022-11-20T00:38:56;3.90;99.90
3638;DHT22;1835;50.068;8.154;2022-11-20T00:41:26;3.80;99.90
3638;DHT22;1835;50.068;8.154;2022-11-20T00:43:55;3.70;99.90
3638;DHT22;1835;50.068;8.154;2022-11-20T00:46:25;3.90;99.90
3638;DHT22;1835;50.068;8.154;2022-11-20T00:48:56;3.70;99.90
3638;DHT22;1835;50.068;8.154;2022-11-20T00:51:25;3.80;99.90
3638;DHT22;1835;50.068;8.154;2022-11-20T00:53:55;3.40;99.90
3638;DHT22;1835;50.068;8.154;2022-11-20T00:56:24;3.30;99.90
3638;DHT22;1835;50.068;8.154;2022-11-20T00:58:52;3.40;99.90
3638;DHT22;1835;50.068;8.154;2022-11-20T01:01:22;3.50;99.90
3638;DHT22;1835;50.068;8.154;2022-11-20T01:03:53;3.80;99.90
3638;DHT22;1835;50.068;8.154;2022-11-20T01:06:25;3.70;99.90
3638;DHT22;1835;50.068;8.154;2022-11-20T01:08:55;3.60;99.90
3638;DHT22;1835;50.068;8.154;2022-11-20T01:11:26;3.40;99.90
3638;DHT22;1835;50.068;8.154;2022-11-20T01:13:55;3.40;99.90
3638;DHT22;1835;50.068;8.154;2022-11-20T01:16:27;3.10;99.90
3638;DHT22;1835;50.068;8.154;2022-11-20T01:18:58;3.30;99.90
3638;DHT22;1835;50.068;8.154;2022-11-20T01:21:29;3.10;99.90
3638;DHT22;1835;50.068;8.154;2022-11-20T01:23:59;3.10;99.90
3638;DHT22;1835;50.068;8.154;2022-11-20T01:26:29;3.10;99.90
3638;DHT22;1835;50.068;8.154;2022-11-20T01:29:00;3.10;99.90
3638;DHT22;1835;50.068;8.154;2022-11-20T01:31:29;3.10;99.90
3638;DHT22;1835;50.068;8.154;2022-11-20T01:34:00;3.10;99.90
3638;DHT22;1835;50.068;8.154;2022-11-20T01:36:33;3.00;99.90
3638;DHT22;1835;50.068;8.154;2022-11-20T01:39:05;3.00;99.90
3638;DHT22;1835;50.068;8.154;2022-11-20T01:41:34;2.90;99.90
3638;DHT22;1835;50.068;8.154;2022-11-20T01:44:22;2.90;99.90
3638;DHT22;1835;50.068;8.154;2022-11-20T01:47:14;2.80;99.90
3638;DHT22;1835;50.068;8.154;2022-11-20T01:49:47;2.90;99.90
3638;DHT22;1835;50.068;8.154;2022-11-20T01:52:21;2.90;99.90
3638;DHT22;1835;50.068;8.154;2022-11-20T01:54:54;2.90;99.90
3638;DHT22;1835;50.068;8.154;2022-11-20T01:57:25;2.90;99.90
3638;DHT22;1835;50.068;8.154;2022-11-20T01:59:59;2.90;99.90
3638;DHT22;1835;50.068;8.154;2022-11-20T02:02:28;2.90;99.90
3638;DHT22;1835;50.068;8.154;2022-11-20T02:05:00;3.00;99.90
3638;DHT22;1835;50.068;8.154;2022-11-20T02:07:33;3.00;99.90
3638;DHT22;1835;50.068;8.154;2022-11-20T02:10:02;3.00;99.90
3638;DHT22;1835;50.068;8.154;2022-11-20T02:12:31;3.00;99.90
3638;DHT22;1835;50.068;8.154;2022-11-20T02:15:17;3.00;99.90
3638;DHT22;1835;50.068;8.154;2022-11-20T02:17:45;3.00;99.90
3638;DHT22;1835;50.068;8.154;2022-11-20T02:20:13;3.00;99.90
3638;DHT22;1835;50.068;8.154;2022-11-20T02:22:48;2.90;99.90
3638;DHT22;1835;50.068;8.154;2022-11-20T02:25:23;2.90;99.90
3638;DHT22;1835;50.068;8.154;2022-11-20T02:27:52;2.90;99.90
3638;DHT22;1835;50.068;8.154;2022-11-20T02:30:20;3.10;99.90
3638;DHT22;1835;50.068;8.154;2022-11-20T02:32:48;3.10;99.90
3638;DHT22;1835;50.068;8.154;2022-11-20T02:35:44;3.10;99.90
3638;DHT22;1835;50.068;8.154;2022-11-20T02:38:13;3.10;99.90
3638;DHT22;1835;50.068;8.154;2022-11-20T02:40:43;3.20;99.90
3638;DHT22;1835;50.068;8.154;2022-11-20T02:43:11;3.20;99.90
3638;DHT22;1835;50.068;8.154;2022-11-20T02:45:39;3.10;99.90
3638;DHT22;1835;50.068;8.154;2022-11-20T02:48:07;3.20;99.90
3638;DHT22;1835;50.068;8.154;2022-11-20T02:50:37;3.10;99.90
3638;DHT22;1835;50.068;8.154;2022-11-20T02:53:06;3.00;99.90
3638;DHT22;1835;50.068;8.154;2022-11-20T02:55:34;3.10;99.90
3638;DHT22;1835;50.068;8.154;2022-11-20T02:58:04;3.10;99.90
3638;DHT22;1835;50.068;8.154;2022-11-20T03:00:32;3.10;99.90
3638;DHT22;1835;50.068;8.154;2022-11-20T03:03:00;3.40;99.90
3638;DHT22;1835;50.068;8.154;2022-11-20T03:05:28;3.40;99.90
3638;DHT22;1835;50.068;8.154;2022-11-20T03:07:56;3.30;99.90
3638;DHT22;1835;50.068;8.154;2022-11-20T03:10:24;3.20;99.90
3638;DHT22;1835;50.068;8.154;2022-11-20T03:12:53;3.10;99.90
3638;DHT22;1835;50.068;8.154;2022-11-20T03:15:24;3.20;99.90
3638;DHT22;1835;50.068;8.154;2022-11-20T03:17:53;3.20;99.90
3638;DHT22;1835;50.068;8.154;2022-11-20T03:20:22;3.10;99.90
3638;DHT22;1835;50.068;8.154;2022-11-20T03:22:50;3.10;99.90
3638;DHT22;1835;50.068;8.154;2022-11-20T03:25:21;3.00;99.90
3638;DHT22;1835;50.068;8.154;2022-11-20T03:27:49;3.10;99.90
3638;DHT22;1835;50.068;8.154;2022-11-20T03:30:17;3.10;99.90
3638;DHT22;1835;50.068;8.154;2022-11-20T03:32:46;3.20;99.90
3638;DHT22;1835;50.068;8.154;2022-11-20T03:35:14;3.20;99.90
3638;DHT22;1835;50.068;8.154;2022-11-20T03:37:42;3.10;99.90
3638;DHT22;1835;50.068;8.154;2022-11-20T03:40:12;3.10;99.90
3638;DHT22;1835;50.068;8.154;2022-11-20T03:42:40;3.30;99.90
3638;DHT22;1835;50.068;8.154;2022-11-20T03:45:16;3.50;99.90
3638;DHT22;1835;50.068;8.154;2022-11-20T03:47:46;3.50;99.90
3638;DHT22;1835;50.068;8.154;2022-11-20T03:50:14;3.30;99.90
3638;DHT22;1835;50.068;8.154;2022-11-20T03:52:42;3.40;99.90
3638;DHT22;1835;50.068;8.154;2022-11-20T03:55:10;3.40;99.90
3638;DHT22;1835;50.068;8.154;2022-11-20T03:57:38;3.60;99.90
3638;DHT22;1835;50.068;8.154;2022-11-20T04:00:08;3.60;99.90
3638;DHT22;1835;50.068;8.154;2022-11-20T04:02:37;3.70;99.90
3638;DHT22;1835;50.068;8.154;2022-11-20T04:05:06;3.50;99.90
3638;DHT22;1835;50.068;8.154;2022-11-20T04:07:35;3.40;99.90
3638;DHT22;1835;50.068;8.154;2022-11-20T04:10:04;3.40;99.90
3638;DHT22;1835;50.068;8.154;2022-11-20T04:12:33;3.30;99.90
3638;DHT22;1835;50.068;8.154;2022-11-20T04:15:01;3.30;99.90
3638;DHT22;1835;50.068;8.154;2022-11-20T04:17:29;3.40;99.90
3638;DHT22;1835;50.068;8.154;2022-11-20T04:19:57;3.70;99.90
3638;DHT22;1835;50.068;8.154;2022-11-20T04:22:26;3.90;99.90
3638;DHT22;1835;50.068;8.154;2022-11-20T04:24:54;4.10;99.90
3638;DHT22;1835;50.068;8.154;2022-11-20T04:27:22;4.40;99.90
3638;DHT22;1835;50.068;8.154;2022-11-20T04:29:50;4.30;99.90
3638;DHT22;1835;50.068;8.154;2022-11-20T04:32:18;4.10;99.90
3638;DHT22;1835;50.068;8.154;2022-11-20T04:34:46;3.70;99.90
3638;DHT22;1835;50.068;8.154;2022-11-20T04:37:14;3.90;99.90
3638;DHT22;1835;50.068;8.154;2022-11-20T04:39:44;4.10;99.90
3638;DHT22;1835;50.068;8.154;2022-11-20T04:42:12;4.40;99.90
3638;DHT22;1835;50.068;8.154;2022-11-20T04:44:58;4.30;99.90
3638;DHT22;1835;50.068;8.154;2022-11-20T04:47:26;4.10;99.90
3638;DHT22;1835;50.068;8.154;2022-11-20T04:49:54;4.30;99.90
3638;DHT22;1835;50.068;8.154;2022-11-20T04:52:22;4.20;99.90
3638;DHT22;1835;50.068;8.154;2022-11-20T04:54:52;4.00;99.90
3638;DHT22;1835;50.068;8.154;2022-11-20T04:57:20;3.60;99.90
3638;DHT22;1835;50.068;8.154;2022-11-20T04:59:48;3.40;99.90
3638;DHT22;1835;50.068;8.154;2022-11-20T05:02:16;3.40;99.90
3638;DHT22;1835;50.068;8.154;2022-11-20T05:04:44;3.40;99.90
3638;DHT22;1835;50.068;8.154;2022-11-20T05:07:12;3.30;99.90
3638;DHT22;1835;50.068;8.154;2022-11-20T05:09:41;3.40;99.90
3638;DHT22;1835;50.068;8.154;2022-11-20T05:12:10;3.50;99.90
3638;DHT22;1835;50.068;8.154;2022-11-20T05:14:38;3.40;99.90
3638;DHT22;1835;50.068;8.154;2022-11-20T05:17:10;3.60;99.90
3638;DHT22;1835;50.068;8.154;2022-11-20T05:19:38;3.60;99.90
3638;DHT22;1835;50.068;8.154;2022-11-20T05:22:06;3.50;99.90
3638;DHT22;1835;50.068;8.154;2022-11-20T05:24:34;3.50;99.90
3638;DHT22;1835;50.068;8.154;2022-11-20T05:27:02;3.60;99.90
3638;DHT22;1835;50.068;8.154;2022-11-20T05:29:31;3.60;99.90
3638;DHT22;1835;50.068;8.154;2022-11-20T05:31:59;3.50;99.90
3638;DHT22;1835;50.068;8.154;2022-11-20T05:34:27;3.40;99.90
3638;DHT22;1835;50.068;8.154;2022-11-20T05:36:55;3.50;99.90
3638;DHT22;1835;50.068;8.154;2022-11-20T05:39:23;3.70;99.90
3638;DHT22;1835;50.068;8.154;2022-11-20T05:41:51;3.80;99.90
3638;DHT22;1835;50.068;8.154;2022-11-20T05:44:41;3.90;99.90
3638;DHT22;1835;50.068;8.154;2022-11-20T05:47:08;4.00;99.90
3638;DHT22;1835;50.068;8.154;2022-11-20T05:49:37;4.10;99.90
3638;DHT22;1835;50.068;8.154;2022-11-20T05:52:05;4.10;99.90
3638;DHT22;1835;50.068;8.154;2022-11-20T05:54:33;3.80;99.90
3638;DHT22;1835;50.068;8.154;2022-11-20T05:57:01;3.70;99.90
3638;DHT22;1835;50.068;8.154;2022-11-20T05:59:29;3.70;99.90
3638;DHT22;1835;50.068;8.154;2022-11-20T06:01:58;3.90;99.90
3638;DHT22;1835;50.068;8.154;2022-11-20T06:04:26;3.80;99.90
3638;DHT22;1835;50.068;8.154;2022-11-20T06:06:54;3.50;99.90
3638;DHT22;1835;50.068;8.154;2022-11-20T06:09:22;3.50;99.90
3638;DHT22;1835;50.068;8.154;2022-11-20T06:11:50;3.40;99.90
3638;DHT22;1835;50.068;8.154;2022-11-20T06:14:18;3.30;99.90
3638;DHT22;1835;50.068;8.154;2022-11-20T06:16:46;3.30;99.90
3638;DHT22;1835;50.068;8.154;2022-11-20T06:19:16;3.30;99.90
3638;DHT22;1835;50.068;8.154;2022-11-20T06:21:44;3.30;99.90
3638;DHT22;1835;50.068;8.154;2022-11-20T06:24:12;3.40;99.90
3638;DHT22;1835;50.068;8.154;2022-11-20T06:26:41;3.40;99.90
3638;DHT22;1835;50.068;8.154;2022-11-20T06:29:09;3.40;99.90
3638;DHT22;1835;50.068;8.154;2022-11-20T06:31:37;3.30;99.90
3638;DHT22;1835;50.068;8.154;2022-11-20T06:34:06;3.20;99.90
3638;DHT22;1835;50.068;8.154;2022-11-20T06:36:35;3.10;99.90
3638;DHT22;1835;50.068;8.154;2022-11-20T06:39:04;3.20;99.90
3638;DHT22;1835;50.068;8.154;2022-11-20T06:41:31;3.20;99.90
3638;DHT22;1835;50.068;8.154;2022-11-20T06:43:59;3.20;99.90
3638;DHT22;1835;50.068;8.154;2022-11-20T06:46:27;3.30;99.90
3638;DHT22;1835;50.068;8.154;2022-11-20T06:48:55;3.20;99.90
3638;DHT22;1835;50.068;8.154;2022-11-20T06:51:24;3.30;99.90
3638;DHT22;1835;50.068;8.154;2022-11-20T06:53:54;3.30;99.90
3638;DHT22;1835;50.068;8.154;2022-11-20T06:56:22;3.40;99.90
3638;DHT22;1835;50.068;8.154;2022-11-20T06:58:50;3.40;99.90
3638;DHT22;1835;50.068;8.154;2022-11-20T07:01:18;3.30;99.90
3638;DHT22;1835;50.068;8.154;2022-11-20T07:03:48;3.30;99.90
3638;DHT22;1835;50.068;8.154;2022-11-20T07:06:20;3.30;99.90
3638;DHT22;1835;50.068;8.154;2022-11-20T07:08:50;3.30;99.90
3638;DHT22;1835;50.068;8.154;2022-11-20T07:11:20;3.30;99.90
3638;DHT22;1835;50.068;8.154;2022-11-20T07:13:48;3.40;99.90
3638;DHT22;1835;50.068;8.154;2022-11-20T07:16:16;3.30;99.90
3638;DHT22;1835;50.068;8.154;2022-11-20T07:18:44;3.30;99.90
3638;DHT22;1835;50.068;8.154;2022-11-20T07:21:16;3.30;99.90
3638;DHT22;1835;50.068;8.154;2022-11-20T07:23:44;3.30;99.90
3638;DHT22;1835;50.068;8.154;2022-11-20T07:26:12;3.40;99.90
3638;DHT22;1835;50.068;8.154;2022-11-20T07:28:44;3.50;99.90
3638;DHT22;1835;50.068;8.154;2022-11-20T07:31:12;3.70;99.90
3638;DHT22;1835;50.068;8.154;2022-11-20T07:33:45;3.60;99.90
3638;DHT22;1835;50.068;8.154;2022-11-20T07:36:14;3.70;99.90
3638;DHT22;1835;50.068;8.154;2022-11-20T07:38:42;3.80;99.90
3638;DHT22;1835;50.068;8.154;2022-11-20T07:41:10;4.10;99.90
3638;DHT22;1835;50.068;8.154;2022-11-20T07:43:38;4.00;99.90
3638;DHT22;1835;50.068;8.154;2022-11-20T07:46:08;4.00;99.90
3638;DHT22;1835;50.068;8.154;2022-11-20T07:48:36;4.00;99.90
3638;DHT22;1835;50.068;8.154;2022-11-20T07:51:04;4.00;99.90
3638;DHT22;1835;50.068;8.154;2022-11-20T07:53:32;4.00;99.90
3638;DHT22;1835;50.068;8.154;2022-11-20T07:56:00;4.20;99.90
3638;DHT22;1835;50.068;8.154;2022-11-20T07:58:29;4.50;99.90
3638;DHT22;1835;50.068;8.154;2022-11-20T08:01:03;4.60;99.90
3638;DHT22;1835;50.068;8.154;2022-11-20T08:03:32;4.50;99.90
3638;DHT22;1835;50.068;8.154;2022-11-20T08:06:00;4.50;99.90
3638;DHT22;1835;50.068;8.154;2022-11-20T08:08:29;4.60;99.90
3638;DHT22;1835;50.068;8.154;2022-11-20T08:11:00;4.60;99.90
3638;DHT22;1835;50.068;8.154;2022-11-20T08:13:42;4.60;99.90
3638;DHT22;1835;50.068;8.154;2022-11-20T08:16:37;4.70;99.90
3638;DHT22;1835;50.068;8.154;2022-11-20T08:19:06;4.90;99.90
3638;DHT22;1835;50.068;8.154;2022-11-20T08:21:34;5.00;99.90
3638;DHT22;1835;50.068;8.154;2022-11-20T08:24:05;4.90;99.90
3638;DHT22;1835;50.068;8.154;2022-11-20T08:26:34;4.90;99.90
3638;DHT22;1835;50.068;8.154;2022-11-20T08:29:05;4.70;99.90
3638;DHT22;1835;50.068;8.154;2022-11-20T08:31:34;5.00;99.90
3638;DHT22;1835;50.068;8.154;2022-11-20T08:34:03;5.00;99.90
3638;DHT22;1835;50.068;8.154;2022-11-20T08:36:36;5.10;99.90
3638;DHT22;1835;50.068;8.154;2022-11-20T08:39:04;4.90;99.90
3638;DHT22;1835;50.068;8.154;2022-11-20T08:41:32;4.90;99.90
3638;DHT22;1835;50.068;8.154;2022-11-20T08:44:02;5.20;99.90
3638;DHT22;1835;50.068;8.154;2022-11-20T08:46:33;5.40;99.90
3638;DHT22;1835;50.068;8.154;2022-11-20T08:49:05;5.40;99.90
3638;DHT22;1835;50.068;8.154;2022-11-20T08:51:34;5.50;99.90
3638;DHT22;1835;50.068;8.154;2022-11-20T08:54:03;5.40;99.90
3638;DHT22;1835;50.068;8.154;2022-11-20T08:56:33;5.30;99.90
3638;DHT22;1835;50.068;8.154;2022-11-20T08:59:01;5.40;99.90
3638;DHT22;1835;50.068;8.154;2022-11-20T09:01:49;5.50;99.90
3638;DHT22;1835;50.068;8.154;2022-11-20T09:04:18;5.50;99.90
3638;DHT22;1835;50.068;8.154;2022-11-20T09:06:46;5.40;99.90
3638;DHT22;1835;50.068;8.154;2022-11-20T09:09:17;5.40;99.90
3638;DHT22;1835;50.068;8.154;2022-11-20T09:11:46;5.70;99.90
3638;DHT22;1835;50.068;8.154;2022-11-20T09:14:14;5.60;99.90
3638;DHT22;1835;50.068;8.154;2022-11-20T09:16:42;5.80;99.90
3638;DHT22;1835;50.068;8.154;2022-11-20T09:19:12;5.90;99.90
3638;DHT22;1835;50.068;8.154;2022-11-20T09:22:02;5.90;99.90
3638;DHT22;1835;50.068;8.154;2022-11-20T09:24:30;5.70;99.90
3638;DHT22;1835;50.068;8.154;2022-11-20T09:27:01;5.50;99.90
3638;DHT22;1835;50.068;8.154;2022-11-20T09:29:30;5.70;99.90
3638;DHT22;1835;50.068;8.154;2022-11-20T09:31:59;5.50;99.90
3638;DHT22;1835;50.068;8.154;2022-11-20T09:34:27;5.50;99.90
3638;DHT22;1835;50.068;8.154;2022-11-20T09:36:55;5.60;99.90
3638;DHT22;1835;50.068;8.154;2022-11-20T09:39:28;5.60;99.90
3638;DHT22;1835;50.068;8.154;2022-11-20T09:42:05;5.60;99.90
3638;DHT22;1835;50.068;8.154;2022-11-20T09:45:12;5.60;99.90
3638;DHT22;1835;50.068;8.154;2022-11-20T09:47:56;5.70;99.90
3638;DHT22;1835;50.068;8.154;2022-11-20T09:50:33;5.80;99.90
3638;DHT22;1835;50.068;8.154;2022-11-20T09:53:13;5.90;99.90
3638;DHT22;1835;50.068;8.154;2022-11-20T09:55:48;6.00;99.90
3638;DHT22;1835;50.068;8.154;2022-11-20T09:58:27;5.30;99.90
3638;DHT22;1835;50.068;8.154;2022-11-20T10:01:05;5.10;99.90
3638;DHT22;1835;50.068;8.154;2022-11-20T10:03:45;4.80;99.90
3638;DHT22;1835;50.068;8.154;2022-11-20T10:06:25;5.30;99.90
3638;DHT22;1835;50.068;8.154;2022-11-20T10:09:07;5.60;99.90
3638;DHT22;1835;50.068;8.154;2022-11-20T10:11:55;5.60;99.90
3638;DHT22;1835;50.068;8.154;2022-11-20T10:14:42;5.40;99.90
3638;DHT22;1835;50.068;8.154;2022-11-20T10:17:24;5.40;99.90
3638;DHT22;1835;50.068;8.154;2022-11-20T10:20:15;5.40;99.90
3638;DHT22;1835;50.068;8.154;2022-11-20T10:23:06;5.20;99.90
3638;DHT22;1835;50.068;8.154;2022-11-20T10:25:58;5.30;99.90
3638;DHT22;1835;50.068;8.154;2022-11-20T10:28:40;5.20;99.90
3638;DHT22;1835;50.068;8.154;2022-11-20T10:31:29;5.10;99.90
3638;DHT22;1835;50.068;8.154;2022-11-20T10:34:03;5.20;99.90
3638;DHT22;1835;50.068;8.154;2022-11-20T10:36:43;5.40;99.90
3638;DHT22;1835;50.068;8.154;2022-11-20T10:39:17;5.60;99.90
3638;DHT22;1835;50.068;8.154;2022-11-20T10:41:51;5.50;99.90
3638;DHT22;1835;50.068;8.154;2022-11-20T10:44:26;5.50;99.90
3638;DHT22;1835;50.068;8.154;2022-11-20T10:47:14;5.50;99.90
3638;DHT22;1835;50.068;8.154;2022-11-20T10:49:43;5.30;99.90
3638;DHT22;1835;50.068;8.154;2022-11-20T10:52:18;5.50;99.90
3638;DHT22;1835;50.068;8.154;2022-11-20T10:54:59;5.90;99.90
3638;DHT22;1835;50.068;8.154;2022-11-20T10:57:47;6.00;99.90
3638;DHT22;1835;50.068;8.154;2022-11-20T11:00:21;5.70;99.90
3638;DHT22;1835;50.068;8.154;2022-11-20T11:02:51;5.60;99.90
3638;DHT22;1835;50.068;8.154;2022-11-20T11:05:32;5.60;99.90
3638;DHT22;1835;50.068;8.154;2022-11-20T11:08:05;5.80;99.90
3638;DHT22;1835;50.068;8.154;2022-11-20T11:10:42;5.80;99.90
3638;DHT22;1835;50.068;8.154;2022-11-20T11:13:20;5.90;99.90
3638;DHT22;1835;50.068;8.154;2022-11-20T11:15:50;5.90;99.90
3638;DHT22;1835;50.068;8.154;2022-11-20T11:18:24;6.10;99.90
3638;DHT22;1835;50.068;8.154;2022-11-20T11:20:54;6.20;99.90
3638;DHT22;1835;50.068;8.154;2022-11-20T11:23:30;6.10;99.90
3638;DHT22;1835;50.068;8.154;2022-11-20T11:26:01;6.50;99.90
3638;DHT22;1835;50.068;8.154;2022-11-20T11:28:31;6.70;99.90
3638;DHT22;1835;50.068;8.154;2022-11-20T11:31:02;7.00;99.90
3638;DHT22;1835;50.068;8.154;2022-11-20T11:33:32;6.90;99.90
3638;DHT22;1835;50.068;8.154;2022-11-20T11:36:16;7.00;99.90
3638;DHT22;1835;50.068;8.154;2022-11-20T11:38:48;7.20;99.90
3638;DHT22;1835;50.068;8.154;2022-11-20T11:41:20;7.30;99.90
3638;DHT22;1835;50.068;8.154;2022-11-20T11:43:53;7.30;99.90
3638;DHT22;1835;50.068;8.154;2022-11-20T11:46:44;7.20;99.90
3638;DHT22;1835;50.068;8.154;2022-11-20T11:49:19;7.00;99.90
3638;DHT22;1835;50.068;8.154;2022-11-20T11:52:03;6.90;99.90
3638;DHT22;1835;50.068;8.154;2022-11-20T11:54:41;6.90;99.90
3638;DHT22;1835;50.068;8.154;2022-11-20T11:57:16;7.30;99.90
3638;DHT22;1835;50.068;8.154;2022-11-20T11:59:57;7.40;99.90
3638;DHT22;1835;50.068;8.154;2022-11-20T12:02:35;7.40;99.90
3638;DHT22;1835;50.068;8.154;2022-11-20T12:05:13;7.20;99.90
3638;DHT22;1835;50.068;8.154;2022-11-20T12:07:47;6.90;99.90
3638;DHT22;1835;50.068;8.154;2022-11-20T12:10:21;6.80;99.90
3638;DHT22;1835;50.068;8.154;2022-11-20T12:12:54;6.80;99.90
3638;DHT22;1835;50.068;8.154;2022-11-20T12:15:30;6.80;99.90
3638;DHT22;1835;50.068;8.154;2022-11-20T12:18:02;6.60;99.90
3638;DHT22;1835;50.068;8.154;2022-11-20T12:20:38;6.50;99.90
3638;DHT22;1835;50.068;8.154;2022-11-20T12:23:16;6.60;99.90
3638;DHT22;1835;50.068;8.154;2022-11-20T12:25:52;6.70;99.90
3638;DHT22;1835;50.068;8.154;2022-11-20T12:28:34;6.60;99.90
3638;DHT22;1835;50.068;8.154;2022-11-20T12:31:25;6.60;99.90
3638;DHT22;1835;50.068;8.154;2022-11-20T12:34:22;6.80;99.90
3638;DHT22;1835;50.068;8.154;2022-11-20T12:37:01;6.50;99.90
3638;DHT22;1835;50.068;8.154;2022-11-20T12:39:34;6.50;99.90
3638;DHT22;1835;50.068;8.154;2022-11-20T12:42:30;6.60;99.90
3638;DHT22;1835;50.068;8.154;2022-11-20T12:45:29;6.40;99.90
3638;DHT22;1835;50.068;8.154;2022-11-20T12:48:38;6.40;99.90
3638;DHT22;1835;50.068;8.154;2022-11-20T12:51:31;6.80;99.90
3638;DHT22;1835;50.068;8.154;2022-11-20T12:54:20;6.90;99.90
3638;DHT22;1835;50.068;8.154;2022-11-20T12:57:01;6.80;99.90
3638;DHT22;1835;50.068;8.154;2022-11-20T12:59:45;6.90;99.90
3638;DHT22;1835;50.068;8.154;2022-11-20T13:02:25;7.20;99.90
3638;DHT22;1835;50.068;8.154;2022-11-20T13:05:10;7.00;99.90
3638;DHT22;1835;50.068;8.154;2022-11-20T13:07:47;6.80;99.90
3638;DHT22;1835;50.068;8.154;2022-11-20T13:10:20;6.80;99.90
3638;DHT22;1835;50.068;8.154;2022-11-20T13:12:55;6.50;99.90
3638;DHT22;1835;50.068;8.154;2022-11-20T13:15:37;6.60;99.90
3638;DHT22;1835;50.068;8.154;2022-11-20T13:18:12;7.00;99.90
3638;DHT22;1835;50.068;8.154;2022-11-20T13:20:42;7.10;99.90
3638;DHT22;1835;50.068;8.154;2022-11-20T13:23:23;7.20;99.90
3638;DHT22;1835;50.068;8.154;2022-11-20T13:26:04;7.20;99.90
3638;DHT22;1835;50.068;8.154;2022-11-20T13:28:33;7.20;99.90
3638;DHT22;1835;50.068;8.154;2022-11-20T13:31:02;7.20;99.90
3638;DHT22;1835;50.068;8.154;2022-11-20T13:33:31;7.20;99.90
3638;DHT22;1835;50.068;8.154;2022-11-20T13:36:03;7.30;99.90
3638;DHT22;1835;50.068;8.154;2022-11-20T13:38:43;7.30;99.90
3638;DHT22;1835;50.068;8.154;2022-11-20T13:41:23;7.20;99.90
3638;DHT22;1835;50.068;8.154;2022-11-20T13:43:58;7.10;99.90
3638;DHT22;1835;50.068;8.154;2022-11-20T13:46:36;6.90;99.90
3638;DHT22;1835;50.068;8.154;2022-11-20T13:49:10;6.90;99.90
3638;DHT22;1835;50.068;8.154;2022-11-20T13:51:46;6.80;99.90
3638;DHT22;1835;50.068;8.154;2022-11-20T13:54:50;6.80;99.90
3638;DHT22;1835;50.068;8.154;2022-11-20T14:00:26;6.70;99.90
3638;DHT22;1835;50.068;8.154;2022-11-20T14:03:07;6.70;99.90
3638;DHT22;1835;50.068;8.154;2022-11-20T14:05:45;6.90;99.90
3638;DHT22;1835;50.068;8.154;2022-11-20T14:08:24;7.10;99.90
3638;DHT22;1835;50.068;8.154;2022-11-20T14:11:14;7.30;99.90
3638;DHT22;1835;50.068;8.154;2022-11-20T14:13:58;6.90;99.90
3638;DHT22;1835;50.068;8.154;2022-11-20T14:16:29;6.70;99.90
3638;DHT22;1835;50.068;8.154;2022-11-20T14:19:22;7.00;99.90
3638;DHT22;1835;50.068;8.154;2022-11-20T14:22:07;7.10;99.90
3638;DHT22;1835;50.068;8.154;2022-11-20T14:24:37;7.40;99.90
3638;DHT22;1835;50.068;8.154;2022-11-20T14:27:12;7.60;99.90
3638;DHT22;1835;50.068;8.154;2022-11-20T14:29:43;7.40;99.90
3638;DHT22;1835;50.068;8.154;2022-11-20T14:32:15;7.30;99.90
3638;DHT22;1835;50.068;8.154;2022-11-20T14:34:47;7.20;99.90
3638;DHT22;1835;50.068;8.154;2022-11-20T14:37:20;7.10;99.90
3638;DHT22;1835;50.068;8.154;2022-11-20T14:39:51;7.10;99.90
3638;DHT22;1835;50.068;8.154;2022-11-20T14:42:24;7.00;99.90
3638;DHT22;1835;50.068;8.154;2022-11-20T14:44:55;6.60;99.90
3638;DHT22;1835;50.068;8.154;2022-11-20T14:47:25;6.80;99.90
3638;DHT22;1835;50.068;8.154;2022-11-20T14:49:56;7.10;99.90
3638;DHT22;1835;50.068;8.154;2022-11-20T14:52:26;7.20;99.90
3638;DHT22;1835;50.068;8.154;2022-11-20T14:54:58;7.10;99.90
3638;DHT22;1835;50.068;8.154;2022-11-20T14:57:34;6.90;99.90
3638;DHT22;1835;50.068;8.154;2022-11-20T15:00:06;6.80;99.90
3638;DHT22;1835;50.068;8.154;2022-11-20T15:02:46;6.70;99.90
3638;DHT22;1835;50.068;8.154;2022-11-20T15:05:16;6.80;99.90
3638;DHT22;1835;50.068;8.154;2022-11-20T15:07:47;6.70;99.90
3638;DHT22;1835;50.068;8.154;2022-11-20T15:10:21;6.60;99.90
3638;DHT22;1835;50.068;8.154;2022-11-20T15:12:54;6.50;99.90
3638;DHT22;1835;50.068;8.154;2022-11-20T15:15:27;6.40;99.90
3638;DHT22;1835;50.068;8.154;2022-11-20T15:17:58;6.40;99.90
3638;DHT22;1835;50.068;8.154;2022-11-20T15:20:29;6.30;99.90
3638;DHT22;1835;50.068;8.154;2022-11-20T15:22:59;6.20;99.90
3638;DHT22;1835;50.068;8.154;2022-11-20T15:25:27;6.40;99.90
3638;DHT22;1835;50.068;8.154;2022-11-20T15:27:57;6.30;99.90
3638;DHT22;1835;50.068;8.154;2022-11-20T15:30:25;6.40;99.90
3638;DHT22;1835;50.068;8.154;2022-11-20T15:32:56;6.50;99.90
3638;DHT22;1835;50.068;8.154;2022-11-20T15:35:24;6.60;99.90
3638;DHT22;1835;50.068;8.154;2022-11-20T15:37:52;6.50;99.90
3638;DHT22;1835;50.068;8.154;2022-11-20T15:40:20;6.40;99.90
3638;DHT22;1835;50.068;8.154;2022-11-20T15:42:48;6.40;99.90
3638;DHT22;1835;50.068;8.154;2022-11-20T15:45:41;6.30;99.90
3638;DHT22;1835;50.068;8.154;2022-11-20T15:48:13;6.40;99.90
3638;DHT22;1835;50.068;8.154;2022-11-20T15:50:49;6.30;99.90
3638;DHT22;1835;50.068;8.154;2022-11-20T15:53:18;6.20;99.90
3638;DHT22;1835;50.068;8.154;2022-11-20T15:55:46;6.10;99.90
3638;DHT22;1835;50.068;8.154;2022-11-20T15:58:14;6.20;99.90
3638;DHT22;1835;50.068;8.154;2022-11-20T16:00:45;6.10;99.90
3638;DHT22;1835;50.068;8.154;2022-11-20T16:03:14;6.10;99.90
3638;DHT22;1835;50.068;8.154;2022-11-20T16:05:43;6.10;99.90
3638;DHT22;1835;50.068;8.154;2022-11-20T16:08:11;6.20;99.90
3638;DHT22;1835;50.068;8.154;2022-11-20T16:10:40;6.50;99.90
3638;DHT22;1835;50.068;8.154;2022-11-20T16:13:12;6.50;99.90
3638;DHT22;1835;50.068;8.154;2022-11-20T16:16:03;6.50;99.90
3638;DHT22;1835;50.068;8.154;2022-11-20T16:18:33;6.50;99.90
3638;DHT22;1835;50.068;8.154;2022-11-20T16:21:01;6.40;99.90
3638;DHT22;1835;50.068;8.154;2022-11-20T16:23:30;6.30;99.90
3638;DHT22;1835;50.068;8.154;2022-11-20T16:25:59;6.20;99.90
3638;DHT22;1835;50.068;8.154;2022-11-20T16:28:37;6.20;99.90
3638;DHT22;1835;50.068;8.154;2022-11-20T16:31:11;6.20;99.90
3638;DHT22;1835;50.068;8.154;2022-11-20T16:33:40;6.20;99.90
3638;DHT22;1835;50.068;8.154;2022-11-20T16:36:09;6.10;99.90
3638;DHT22;1835;50.068;8.154;2022-11-20T16:38:38;6.10;99.90
3638;DHT22;1835;50.068;8.154;2022-11-20T16:41:08;6.10;99.90
3638;DHT22;1835;50.068;8.154;2022-11-20T16:43:47;6.20;99.90
3638;DHT22;1835;50.068;8.154;2022-11-20T16:46:20;6.20;99.90
3638;DHT22;1835;50.068;8.154;2022-11-20T16:48:52;6.10;99.90
3638;DHT22;1835;50.068;8.154;2022-11-20T16:51:22;6.10;99.90
3638;DHT22;1835;50.068;8.154;2022-11-20T16:53:52;6.10;99.90
3638;DHT22;1835;50.068;8.154;2022-11-20T16:56:22;6.10;99.90